sensor_id;sensor_type;location;lat;lon;timestamp;pressure;altitude;pressure_sealevel;temperature;humidity
34482;BME280;20720;48.886;9.388;2022-10-31T00:01:15;98790.38;;;12.64;100.00
34482;BME280;20720;48.886;9.388;2022-10-31T00:03:41;98790.59;;;13.01;100.00
34482;BME280;20720;48.886;9.388;2022-10-31T00:06:06;98791.81;;;12.99;100.00
34482;BME280;20720;48.886;9.388;2022-10-31T00:08:32;98792.84;;;12.98;100.00
34482;BME280;20720;48.886;9.388;2022-10-31T00:10:57;98787.94;;;12.69;100.00
34482;BME280;20720;48.886;9.388;2022-10-31T00:13:22;98792.72;;;12.26;100.00
34482;BME280;20720;48.886;9.388;2022-10-31T00:15:47;98791.97;;;12.65;100.00
34482;BME280;20720;48.886;9.388;2022-10-31T00:18:13;98794.44;;;12.73;100.00
34482;BME280;20720;48.886;9.388;2022-10-31T00:20:39;98790.75;;;12.74;100.00
34482;BME280;20720;48.886;9.388;2022-10-31T00:23:05;98796.03;;;12.67;100.00
34482;BME280;20720;48.886;9.388;2022-10-31T00:25:36;98794.84;;;12.70;100.00
34482;BME280;20720;48.886;9.388;2022-10-31T00:28:06;98792.38;;;12.49;100.00
34482;BME280;20720;48.886;9.388;2022-10-31T00:30:32;98794.78;;;12.44;100.00
34482;BME280;20720;48.886;9.388;2022-10-31T00:32:57;98797.19;;;12.39;100.00
34482;BME280;20720;48.886;9.388;2022-10-31T00:35:22;98792.78;;;12.59;100.00
34482;BME280;20720;48.886;9.388;2022-10-31T00:37:48;98802.31;;;12.60;100.00
34482;BME280;20720;48.886;9.388;2022-10-31T00:40:13;98799.81;;;12.32;100.00
34482;BME280;20720;48.886;9.388;2022-10-31T00:42:40;98801.22;;;12.35;100.00
34482;BME280;20720;48.886;9.388;2022-10-31T00:45:09;98801.09;;;12.56;100.00
34482;BME280;20720;48.886;9.388;2022-10-31T00:47:35;98800.03;;;12.44;100.00
34482;BME280;20720;48.886;9.388;2022-10-31T00:50:00;98805.00;;;12.92;100.00
34482;BME280;20720;48.886;9.388;2022-10-31T00:52:25;98797.28;;;12.97;100.00
34482;BME280;20720;48.886;9.388;2022-10-31T00:54:51;98804.56;;;12.69;100.00
34482;BME280;20720;48.886;9.388;2022-10-31T00:57:16;98811.47;;;12.77;100.00
34482;BME280;20720;48.886;9.388;2022-10-31T00:59:41;98804.19;;;12.92;100.00
34482;BME280;20720;48.886;9.388;2022-10-31T01:02:06;98805.41;;;12.83;100.00
34482;BME280;20720;48.886;9.388;2022-10-31T01:04:32;98803.31;;;11.98;100.00
34482;BME280;20720;48.886;9.388;2022-10-31T01:06:57;98799.16;;;12.17;100.00
34482;BME280;20720;48.886;9.388;2022-10-31T01:09:22;98791.78;;;12.73;100.00
34482;BME280;20720;48.886;9.388;2022-10-31T01:11:47;98794.25;;;12.81;100.00
34482;BME280;20720;48.886;9.388;2022-10-31T01:14:13;98793.84;;;12.90;100.00
34482;BME280;20720;48.886;9.388;2022-10-31T01:16:38;98801.75;;;12.97;100.00
34482;BME280;20720;48.886;9.388;2022-10-31T01:19:03;98795.25;;;12.80;100.00
34482;BME280;20720;48.886;9.388;2022-10-31T01:21:29;98786.34;;;12.94;100.00
34482;BME280;20720;48.886;9.388;2022-10-31T01:23:55;98802.69;;;12.50;100.00
34482;BME280;20720;48.886;9.388;2022-10-31T01:26:22;98791.56;;;12.55;100.00
34482;BME280;20720;48.886;9.388;2022-10-31T01:28:54;98797.28;;;12.84;100.00
34482;BME280;20720;48.886;9.388;2022-10-31T01:31:21;98802.31;;;12.66;100.00
34482;BME280;20720;48.886;9.388;2022-10-31T01:33:47;98800.69;;;12.72;100.00
34482;BME280;20720;48.886;9.388;2022-10-31T01:38:38;98793.63;;;12.66;100.00
34482;BME280;20720;48.886;9.388;2022-10-31T01:41:03;98798.09;;;12.85;100.00
34482;BME280;20720;48.886;9.388;2022-10-31T01:46:13;98798.47;;;12.69;100.00
34482;BME280;20720;48.886;9.388;2022-10-31T01:48:41;98790.75;;;12.61;100.00
34482;BME280;20720;48.886;9.388;2022-10-31T01:51:08;98788.97;;;12.68;100.00
34482;BME280;20720;48.886;9.388;2022-10-31T01:53:36;98786.69;;;12.52;100.00
34482;BME280;20720;48.886;9.388;2022-10-31T01:56:02;98795.63;;;12.64;100.00
34482;BME280;20720;48.886;9.388;2022-10-31T01:58:29;98794.84;;;12.70;100.00
34482;BME280;20720;48.886;9.388;2022-10-31T02:00:58;98784.06;;;12.65;100.00
34482;BME280;20720;48.886;9.388;2022-10-31T02:03:25;98782.88;;;12.67;100.00
34482;BME280;20720;48.886;9.388;2022-10-31T02:05:53;98783.88;;;12.66;100.00
34482;BME280;20720;48.886;9.388;2022-10-31T02:08:32;98791.59;;;12.68;100.00
34482;BME280;20720;48.886;9.388;2022-10-31T02:10:59;98783.09;;;12.79;100.00
34482;BME280;20720;48.886;9.388;2022-10-31T02:13:25;98786.94;;;12.76;100.00
34482;BME280;20720;48.886;9.388;2022-10-31T02:15:54;98784.88;;;12.72;100.00
34482;BME280;20720;48.886;9.388;2022-10-31T02:18:20;98782.84;;;12.74;100.00
34482;BME280;20720;48.886;9.388;2022-10-31T02:27:05;98782.84;;;12.74;100.00
34482;BME280;20720;48.886;9.388;2022-10-31T02:30:09;98780.63;;;12.58;100.00
34482;BME280;20720;48.886;9.388;2022-10-31T02:35:29;98790.31;;;12.44;100.00
34482;BME280;20720;48.886;9.388;2022-10-31T02:41:26;98788.72;;;12.50;100.00
34482;BME280;20720;48.886;9.388;2022-10-31T02:46:47;98785.88;;;12.64;100.00
34482;BME280;20720;48.886;9.388;2022-10-31T02:49:21;98785.50;;;12.74;100.00
34482;BME280;20720;48.886;9.388;2022-10-31T02:51:48;98786.53;;;12.73;100.00
34482;BME280;20720;48.886;9.388;2022-10-31T02:54:23;98784.22;;;12.44;100.00
34482;BME280;20720;48.886;9.388;2022-10-31T02:56:51;98783.00;;;12.33;100.00
34482;BME280;20720;48.886;9.388;2022-10-31T02:59:19;98779.81;;;12.57;100.00
34482;BME280;20720;48.886;9.388;2022-10-31T03:01:56;98789.72;;;12.49;100.00
34482;BME280;20720;48.886;9.388;2022-10-31T03:05:03;98785.06;;;12.38;100.00
34482;BME280;20720;48.886;9.388;2022-10-31T03:18:40;98784.25;;;11.90;100.00
34482;BME280;20720;48.886;9.388;2022-10-31T03:21:11;98786.00;;;12.23;100.00
34482;BME280;20720;48.886;9.388;2022-10-31T03:23:39;98782.75;;;12.21;100.00
34482;BME280;20720;48.886;9.388;2022-10-31T03:26:07;98778.03;;;11.97;100.00
34482;BME280;20720;48.886;9.388;2022-10-31T03:28:41;98784.94;;;12.11;100.00
34482;BME280;20720;48.886;9.388;2022-10-31T03:31:09;98776.47;;;12.16;100.00
34482;BME280;20720;48.886;9.388;2022-10-31T03:33:36;98786.53;;;12.06;100.00
34482;BME280;20720;48.886;9.388;2022-10-31T03:36:04;98775.59;;;11.96;100.00
34482;BME280;20720;48.886;9.388;2022-10-31T03:38:34;98784.56;;;12.14;100.00
34482;BME280;20720;48.886;9.388;2022-10-31T03:41:03;98774.00;;;12.08;100.00
34482;BME280;20720;48.886;9.388;2022-10-31T03:43:33;98785.25;;;11.89;100.00
34482;BME280;20720;48.886;9.388;2022-10-31T03:46:02;98783.91;;;11.99;100.00
34482;BME280;20720;48.886;9.388;2022-10-31T03:48:28;98784.91;;;11.98;100.00
34482;BME280;20720;48.886;9.388;2022-10-31T03:51:07;98787.78;;;12.03;100.00
34482;BME280;20720;48.886;9.388;2022-10-31T03:53:55;98780.91;;;11.68;100.00
34482;BME280;20720;48.886;9.388;2022-10-31T03:56:40;98785.19;;;11.69;100.00
34482;BME280;20720;48.886;9.388;2022-10-31T03:59:17;98775.59;;;11.96;100.00
34482;BME280;20720;48.886;9.388;2022-10-31T04:01:50;98778.69;;;12.12;100.00
34482;BME280;20720;48.886;9.388;2022-10-31T04:04:18;98782.13;;;12.19;100.00
34482;BME280;20720;48.886;9.388;2022-10-31T04:06:45;98782.97;;;12.26;100.00
34482;BME280;20720;48.886;9.388;2022-10-31T04:09:13;98780.91;;;12.15;100.00
34482;BME280;20720;48.886;9.388;2022-10-31T04:11:47;98785.22;;;12.29;100.00
34482;BME280;20720;48.886;9.388;2022-10-31T04:14:13;98782.72;;;12.15;100.00
34482;BME280;20720;48.886;9.388;2022-10-31T04:16:42;98782.47;;;11.90;100.00
34482;BME280;20720;48.886;9.388;2022-10-31T04:19:08;98777.69;;;11.73;100.00
34482;BME280;20720;48.886;9.388;2022-10-31T04:21:33;98767.59;;;11.76;100.00
34482;BME280;20720;48.886;9.388;2022-10-31T04:23:59;98769.53;;;12.08;100.00
34482;BME280;20720;48.886;9.388;2022-10-31T04:26:25;98769.53;;;12.08;100.00
34482;BME280;20720;48.886;9.388;2022-10-31T04:28:50;98772.44;;;11.79;100.00
34482;BME280;20720;48.886;9.388;2022-10-31T04:31:15;98770.69;;;11.86;100.00
34482;BME280;20720;48.886;9.388;2022-10-31T04:33:41;98773.13;;;11.94;100.00
34482;BME280;20720;48.886;9.388;2022-10-31T04:36:06;98771.16;;;12.03;100.00
34482;BME280;20720;48.886;9.388;2022-10-31T04:38:31;98770.31;;;12.02;100.00
34482;BME280;20720;48.886;9.388;2022-10-31T04:40:57;98766.47;;;11.98;100.00
34482;BME280;20720;48.886;9.388;2022-10-31T04:43:22;98767.81;;;11.81;100.00
34482;BME280;20720;48.886;9.388;2022-10-31T04:45:47;98758.91;;;11.82;100.00
34482;BME280;20720;48.886;9.388;2022-10-31T04:48:13;98765.78;;;11.83;100.00
34482;BME280;20720;48.886;9.388;2022-10-31T04:50:38;98771.06;;;11.83;100.00
34482;BME280;20720;48.886;9.388;2022-10-31T04:53:04;98763.72;;;11.72;100.00
34482;BME280;20720;48.886;9.388;2022-10-31T04:55:29;98759.22;;;11.66;100.00
34482;BME280;20720;48.886;9.388;2022-10-31T04:57:54;98754.38;;;11.70;100.00
34482;BME280;20720;48.886;9.388;2022-10-31T05:00:21;98745.91;;;11.74;100.00
34482;BME280;20720;48.886;9.388;2022-10-31T05:02:48;98745.88;;;11.68;100.00
34482;BME280;20720;48.886;9.388;2022-10-31T05:05:16;98743.44;;;11.66;100.00
34482;BME280;20720;48.886;9.388;2022-10-31T05:07:43;98737.63;;;11.43;100.00
34482;BME280;20720;48.886;9.388;2022-10-31T05:10:10;98736.22;;;11.47;100.00
34482;BME280;20720;48.886;9.388;2022-10-31T05:12:36;98735.69;;;11.58;100.00
34482;BME280;20720;48.886;9.388;2022-10-31T05:15:02;98729.63;;;11.64;100.00
34482;BME280;20720;48.886;9.388;2022-10-31T05:17:27;98733.78;;;11.73;100.00
34482;BME280;20720;48.886;9.388;2022-10-31T05:19:52;98732.69;;;11.27;100.00
34482;BME280;20720;48.886;9.388;2022-10-31T05:22:18;98729.56;;;11.45;100.00
34482;BME280;20720;48.886;9.388;2022-10-31T05:24:43;98731.16;;;11.46;100.00
34482;BME280;20720;48.886;9.388;2022-10-31T05:27:08;98727.09;;;11.43;100.00
34482;BME280;20720;48.886;9.388;2022-10-31T05:29:33;98728.53;;;11.39;100.00
34482;BME280;20720;48.886;9.388;2022-10-31T05:31:59;98726.09;;;11.44;100.00
34482;BME280;20720;48.886;9.388;2022-10-31T05:34:24;98731.59;;;11.49;100.00
34482;BME280;20720;48.886;9.388;2022-10-31T05:36:49;98724.66;;;11.35;100.00
34482;BME280;20720;48.886;9.388;2022-10-31T05:39:15;98718.16;;;11.31;100.00
34482;BME280;20720;48.886;9.388;2022-10-31T05:41:40;98718.16;;;11.31;100.00
34482;BME280;20720;48.886;9.388;2022-10-31T05:44:05;98722.63;;;11.37;100.00
34482;BME280;20720;48.886;9.388;2022-10-31T05:46:31;98722.00;;;11.01;100.00
34482;BME280;20720;48.886;9.388;2022-10-31T05:48:56;98723.88;;;11.07;100.00
34482;BME280;20720;48.886;9.388;2022-10-31T05:51:21;98720.41;;;11.06;100.00
34482;BME280;20720;48.886;9.388;2022-10-31T05:53:47;98722.84;;;11.08;100.00
34482;BME280;20720;48.886;9.388;2022-10-31T05:56:12;98729.44;;;11.25;100.00
34482;BME280;20720;48.886;9.388;2022-10-31T05:58:38;98728.44;;;11.26;100.00
34482;BME280;20720;48.886;9.388;2022-10-31T06:01:03;98723.78;;;11.28;100.00
34482;BME280;20720;48.886;9.388;2022-10-31T06:03:28;98724.94;;;11.19;100.00
34482;BME280;20720;48.886;9.388;2022-10-31T06:05:53;98735.16;;;11.35;100.00
34482;BME280;20720;48.886;9.388;2022-10-31T06:08:19;98728.44;;;11.26;100.00
34482;BME280;20720;48.886;9.388;2022-10-31T06:10:44;98717.78;;;11.06;100.00
34482;BME280;20720;48.886;9.388;2022-10-31T06:13:09;98721.25;;;11.13;100.00
34482;BME280;20720;48.886;9.388;2022-10-31T06:15:34;98722.31;;;11.19;100.00
34482;BME280;20720;48.886;9.388;2022-10-31T06:18:02;98712.38;;;10.87;100.00
34482;BME280;20720;48.886;9.388;2022-10-31T06:20:27;98718.16;;;11.31;100.00
34482;BME280;20720;48.886;9.388;2022-10-31T06:22:53;98719.81;;;11.45;100.00
34482;BME280;20720;48.886;9.388;2022-10-31T06:25:18;98725.88;;;11.39;100.00
34482;BME280;20720;48.886;9.388;2022-10-31T06:27:43;98735.03;;;11.50;100.00
34482;BME280;20720;48.886;9.388;2022-10-31T06:30:09;98721.41;;;11.67;100.00
34482;BME280;20720;48.886;9.388;2022-10-31T06:32:34;98716.75;;;11.69;100.00
34482;BME280;20720;48.886;9.388;2022-10-31T06:35:00;98718.63;;;11.82;100.00
34482;BME280;20720;48.886;9.388;2022-10-31T06:37:25;98724.13;;;12.00;100.00
34482;BME280;20720;48.886;9.388;2022-10-31T06:39:50;98728.97;;;11.90;100.00
34482;BME280;20720;48.886;9.388;2022-10-31T06:42:16;98725.19;;;11.65;100.00
34482;BME280;20720;48.886;9.388;2022-10-31T06:44:42;98731.41;;;11.91;100.00
34482;BME280;20720;48.886;9.388;2022-10-31T06:47:07;98727.84;;;12.18;100.00
34482;BME280;20720;48.886;9.388;2022-10-31T06:49:33;98719.19;;;12.77;100.00
34482;BME280;20720;48.886;9.388;2022-10-31T06:51:58;98724.66;;;12.82;100.00
34482;BME280;20720;48.886;9.388;2022-10-31T06:54:23;98723.66;;;13.09;100.00
34482;BME280;20720;48.886;9.388;2022-10-31T06:56:49;98718.97;;;13.24;100.00
34482;BME280;20720;48.886;9.388;2022-10-31T06:59:14;98718.25;;;13.61;100.00
34482;BME280;20720;48.886;9.388;2022-10-31T07:01:40;98718.13;;;13.87;100.00
34482;BME280;20720;48.886;9.388;2022-10-31T07:04:05;98727.56;;;14.14;100.00
34482;BME280;20720;48.886;9.388;2022-10-31T07:06:31;98725.06;;;14.26;100.00
34482;BME280;20720;48.886;9.388;2022-10-31T07:08:56;98728.78;;;14.12;100.00
34482;BME280;20720;48.886;9.388;2022-10-31T07:11:21;98736.47;;;14.58;100.00
34482;BME280;20720;48.886;9.388;2022-10-31T07:13:46;98733.69;;;14.46;100.00
34482;BME280;20720;48.886;9.388;2022-10-31T07:16:12;98737.47;;;14.32;100.00
34482;BME280;20720;48.886;9.388;2022-10-31T07:18:38;98739.25;;;14.69;100.00
34482;BME280;20720;48.886;9.388;2022-10-31T07:21:04;98746.41;;;14.31;100.00
34482;BME280;20720;48.886;9.388;2022-10-31T07:23:29;98745.78;;;14.36;100.00
34482;BME280;20720;48.886;9.388;2022-10-31T07:25:58;98739.94;;;14.83;100.00
34482;BME280;20720;48.886;9.388;2022-10-31T07:28:25;98740.03;;;15.19;100.00
34482;BME280;20720;48.886;9.388;2022-10-31T07:30:51;98743.78;;;15.72;100.00
34482;BME280;20720;48.886;9.388;2022-10-31T07:33:17;98752.00;;;16.00;100.00
34482;BME280;20720;48.886;9.388;2022-10-31T07:35:42;98758.72;;;16.33;100.00
34482;BME280;20720;48.886;9.388;2022-10-31T07:38:10;98753.03;;;16.18;100.00
34482;BME280;20720;48.886;9.388;2022-10-31T07:40:36;98759.56;;;16.15;100.00
34482;BME280;20720;48.886;9.388;2022-10-31T07:43:02;98766.53;;;16.28;100.00
34482;BME280;20720;48.886;9.388;2022-10-31T07:45:27;98766.69;;;16.33;100.00
34482;BME280;20720;48.886;9.388;2022-10-31T07:47:52;98766.56;;;16.39;100.00
34482;BME280;20720;48.886;9.388;2022-10-31T07:50:21;98762.00;;;16.46;100.00
34482;BME280;20720;48.886;9.388;2022-10-31T07:52:47;98761.06;;;16.41;100.00
34482;BME280;20720;48.886;9.388;2022-10-31T07:55:13;98764.06;;;16.74;100.00
34482;BME280;20720;48.886;9.388;2022-10-31T07:57:39;98759.59;;;16.74;100.00
34482;BME280;20720;48.886;9.388;2022-10-31T08:00:06;98751.53;;;17.04;100.00
34482;BME280;20720;48.886;9.388;2022-10-31T08:02:32;98749.34;;;17.01;100.00
34482;BME280;20720;48.886;9.388;2022-10-31T08:04:57;98753.72;;;16.96;100.00
34482;BME280;20720;48.886;9.388;2022-10-31T08:07:24;98754.53;;;16.96;100.00
34482;BME280;20720;48.886;9.388;2022-10-31T08:09:50;98754.88;;;17.11;100.00
34482;BME280;20720;48.886;9.388;2022-10-31T08:12:15;98752.00;;;17.36;100.00
34482;BME280;20720;48.886;9.388;2022-10-31T08:14:40;98752.09;;;17.75;100.00
34482;BME280;20720;48.886;9.388;2022-10-31T08:17:06;98757.50;;;17.92;100.00
34482;BME280;20720;48.886;9.388;2022-10-31T08:19:31;98755.88;;;17.91;100.00
34482;BME280;20720;48.886;9.388;2022-10-31T08:21:56;98754.78;;;18.43;100.00
34482;BME280;20720;48.886;9.388;2022-10-31T08:24:21;98756.44;;;18.61;100.00
34482;BME280;20720;48.886;9.388;2022-10-31T08:26:47;98763.41;;;18.62;100.00
34482;BME280;20720;48.886;9.388;2022-10-31T08:29:12;98764.69;;;18.20;100.00
34482;BME280;20720;48.886;9.388;2022-10-31T08:31:39;98766.44;;;18.54;100.00
34482;BME280;20720;48.886;9.388;2022-10-31T08:34:05;98760.56;;;18.40;100.00
34482;BME280;20720;48.886;9.388;2022-10-31T08:36:30;98761.88;;;18.66;100.00
34482;BME280;20720;48.886;9.388;2022-10-31T08:38:55;98750.16;;;18.67;100.00
34482;BME280;20720;48.886;9.388;2022-10-31T08:41:21;98744.00;;;18.50;100.00
34482;BME280;20720;48.886;9.388;2022-10-31T08:43:46;98752.66;;;18.57;100.00
34482;BME280;20720;48.886;9.388;2022-10-31T08:46:12;98751.59;;;18.58;100.00
34482;BME280;20720;48.886;9.388;2022-10-31T08:48:38;98752.47;;;18.47;100.00
34482;BME280;20720;48.886;9.388;2022-10-31T08:51:03;98751.31;;;18.71;100.00
34482;BME280;20720;48.886;9.388;2022-10-31T08:53:29;98747.84;;;19.04;100.00
34482;BME280;20720;48.886;9.388;2022-10-31T08:55:55;98749.22;;;19.39;100.00
34482;BME280;20720;48.886;9.388;2022-10-31T08:58:22;98746.38;;;19.46;100.00
34482;BME280;20720;48.886;9.388;2022-10-31T09:00:50;98743.88;;;19.78;100.00
34482;BME280;20720;48.886;9.388;2022-10-31T09:03:22;98750.00;;;20.00;100.00
34482;BME280;20720;48.886;9.388;2022-10-31T09:05:48;98738.44;;;17.83;100.00
34482;BME280;20720;48.886;9.388;2022-10-31T09:08:14;98737.59;;;17.20;100.00
34482;BME280;20720;48.886;9.388;2022-10-31T09:10:40;98735.28;;;18.26;100.00
34482;BME280;20720;48.886;9.388;2022-10-31T09:13:10;98726.19;;;19.00;100.00
34482;BME280;20720;48.886;9.388;2022-10-31T09:15:38;98729.81;;;18.61;100.00
34482;BME280;20720;48.886;9.388;2022-10-31T09:18:05;98732.41;;;19.22;100.00
34482;BME280;20720;48.886;9.388;2022-10-31T09:20:32;98717.91;;;19.51;100.00
34482;BME280;20720;48.886;9.388;2022-10-31T09:23:03;98721.59;;;19.12;100.00
34482;BME280;20720;48.886;9.388;2022-10-31T09:25:29;98724.28;;;20.37;100.00
34482;BME280;20720;48.886;9.388;2022-10-31T09:27:56;98719.13;;;21.20;100.00
34482;BME280;20720;48.886;9.388;2022-10-31T09:30:22;98732.72;;;20.82;100.00
34482;BME280;20720;48.886;9.388;2022-10-31T09:32:47;98721.09;;;21.35;100.00
34482;BME280;20720;48.886;9.388;2022-10-31T09:35:13;98733.22;;;21.52;100.00
34482;BME280;20720;48.886;9.388;2022-10-31T09:37:39;98726.31;;;21.62;100.00
34482;BME280;20720;48.886;9.388;2022-10-31T09:40:06;98726.78;;;21.48;100.00
34482;BME280;20720;48.886;9.388;2022-10-31T09:42:47;98724.84;;;21.34;100.00
34482;BME280;20720;48.886;9.388;2022-10-31T09:45:35;98723.56;;;21.46;100.00
34482;BME280;20720;48.886;9.388;2022-10-31T09:51:20;98719.41;;;21.24;100.00
34482;BME280;20720;48.886;9.388;2022-10-31T09:54:08;98711.91;;;21.63;100.00
34482;BME280;20720;48.886;9.388;2022-10-31T09:56:37;98718.81;;;21.53;100.00
34482;BME280;20720;48.886;9.388;2022-10-31T09:59:05;98727.06;;;22.09;100.00
34482;BME280;20720;48.886;9.388;2022-10-31T10:01:55;98715.78;;;21.87;100.00
34482;BME280;20720;48.886;9.388;2022-10-31T10:04:31;98718.28;;;22.18;100.00
34482;BME280;20720;48.886;9.388;2022-10-31T10:06:58;98726.00;;;22.05;100.00
34482;BME280;20720;48.886;9.388;2022-10-31T10:09:26;98723.84;;;21.97;100.00
34482;BME280;20720;48.886;9.388;2022-10-31T10:15:18;98708.94;;;22.31;98.66
34482;BME280;20720;48.886;9.388;2022-10-31T10:23:11;98711.16;;;22.79;98.47
34482;BME280;20720;48.886;9.388;2022-10-31T10:25:43;98712.25;;;22.93;97.08
34482;BME280;20720;48.886;9.388;2022-10-31T10:28:21;98714.38;;;22.71;97.35
34482;BME280;20720;48.886;9.388;2022-10-31T10:33:37;98710.06;;;23.15;97.48
34482;BME280;20720;48.886;9.388;2022-10-31T10:36:16;98711.16;;;22.94;97.85
34482;BME280;20720;48.886;9.388;2022-10-31T10:38:57;98707.09;;;23.17;99.75
34482;BME280;20720;48.886;9.388;2022-10-31T10:41:28;98708.91;;;23.62;94.30
34482;BME280;20720;48.886;9.388;2022-10-31T10:43:55;98699.09;;;22.82;99.43
34482;BME280;20720;48.886;9.388;2022-10-31T10:54:43;98685.63;;;23.27;92.80
34482;BME280;20720;48.886;9.388;2022-10-31T11:00:38;98682.69;;;23.39;89.21
34482;BME280;20720;48.886;9.388;2022-10-31T11:03:04;98679.25;;;22.93;99.76
34482;BME280;20720;48.886;9.388;2022-10-31T11:05:40;98672.13;;;23.62;94.15
34482;BME280;20720;48.886;9.388;2022-10-31T11:08:07;98681.06;;;23.38;94.86
34482;BME280;20720;48.886;9.388;2022-10-31T11:10:33;98671.84;;;23.69;93.92
34482;BME280;20720;48.886;9.388;2022-10-31T11:18:30;98657.00;;;23.12;100.00
34482;BME280;20720;48.886;9.388;2022-10-31T11:21:00;98648.97;;;22.97;100.00
34482;BME280;20720;48.886;9.388;2022-10-31T11:23:28;98656.19;;;23.02;100.00
34482;BME280;20720;48.886;9.388;2022-10-31T11:26:05;98649.25;;;22.76;100.00
34482;BME280;20720;48.886;9.388;2022-10-31T11:28:32;98639.59;;;21.42;100.00
34482;BME280;20720;48.886;9.388;2022-10-31T11:31:05;98636.63;;;22.16;100.00
34482;BME280;20720;48.886;9.388;2022-10-31T11:33:44;98631.31;;;22.81;100.00
34482;BME280;20720;48.886;9.388;2022-10-31T11:36:33;98630.09;;;23.38;100.00
34482;BME280;20720;48.886;9.388;2022-10-31T11:39:02;98628.06;;;23.73;100.00
34482;BME280;20720;48.886;9.388;2022-10-31T11:41:30;98619.69;;;23.85;98.90
34482;BME280;20720;48.886;9.388;2022-10-31T11:44:00;98621.63;;;22.90;100.00
34482;BME280;20720;48.886;9.388;2022-10-31T11:46:39;98615.25;;;24.14;97.39
34482;BME280;20720;48.886;9.388;2022-10-31T11:49:14;98609.31;;;24.17;94.00
34482;BME280;20720;48.886;9.388;2022-10-31T11:51:40;98610.03;;;23.84;94.16
34482;BME280;20720;48.886;9.388;2022-10-31T11:54:05;98605.53;;;23.10;98.00
34482;BME280;20720;48.886;9.388;2022-10-31T11:56:41;98594.88;;;24.08;95.58
34482;BME280;20720;48.886;9.388;2022-10-31T11:59:28;98601.09;;;23.98;95.42
34482;BME280;20720;48.886;9.388;2022-10-31T12:01:55;98591.19;;;24.33;91.89
34482;BME280;20720;48.886;9.388;2022-10-31T12:04:39;98580.88;;;24.78;89.93
34482;BME280;20720;48.886;9.388;2022-10-31T12:07:07;98578.66;;;25.09;87.34
34482;BME280;20720;48.886;9.388;2022-10-31T12:09:34;98586.50;;;24.48;87.86
34482;BME280;20720;48.886;9.388;2022-10-31T12:23:48;98584.94;;;24.08;94.64
34482;BME280;20720;48.886;9.388;2022-10-31T12:26:32;98575.63;;;23.96;96.61
34482;BME280;20720;48.886;9.388;2022-10-31T12:29:11;98575.50;;;22.98;100.00
34482;BME280;20720;48.886;9.388;2022-10-31T12:32:03;98563.25;;;23.95;98.37
34482;BME280;20720;48.886;9.388;2022-10-31T12:35:02;98561.41;;;24.29;94.81
34482;BME280;20720;48.886;9.388;2022-10-31T12:44:20;98545.50;;;23.60;96.89
34482;BME280;20720;48.886;9.388;2022-10-31T12:46:16;98543.38;;;23.57;100.00
34482;BME280;20720;48.886;9.388;2022-10-31T12:48:54;98531.53;;;24.07;97.54
34482;BME280;20720;48.886;9.388;2022-10-31T12:57:28;98533.31;;;23.78;95.17
34482;BME280;20720;48.886;9.388;2022-10-31T13:02:39;98516.59;;;23.52;98.29
34482;BME280;20720;48.886;9.388;2022-10-31T13:05:39;98510.22;;;23.28;100.00
34482;BME280;20720;48.886;9.388;2022-10-31T13:08:15;98511.47;;;23.56;100.00
34482;BME280;20720;48.886;9.388;2022-10-31T13:10:49;98499.75;;;22.78;100.00
34482;BME280;20720;48.886;9.388;2022-10-31T13:13:24;98496.53;;;22.76;100.00
34482;BME280;20720;48.886;9.388;2022-10-31T13:16:14;98493.38;;;23.27;100.00
34482;BME280;20720;48.886;9.388;2022-10-31T13:19:02;98486.94;;;23.23;100.00
34482;BME280;20720;48.886;9.388;2022-10-31T13:21:39;98485.47;;;22.92;100.00
34482;BME280;20720;48.886;9.388;2022-10-31T13:24:13;98484.88;;;23.10;100.00
34482;BME280;20720;48.886;9.388;2022-10-31T13:26:53;98484.34;;;23.08;100.00
34482;BME280;20720;48.886;9.388;2022-10-31T13:31:51;98475.31;;;22.89;100.00
34482;BME280;20720;48.886;9.388;2022-10-31T13:34:22;98462.38;;;23.01;100.00
34482;BME280;20720;48.886;9.388;2022-10-31T13:37:12;98462.94;;;22.98;100.00
34482;BME280;20720;48.886;9.388;2022-10-31T13:45:19;98446.44;;;22.71;100.00
34482;BME280;20720;48.886;9.388;2022-10-31T13:47:56;98447.91;;;23.02;100.00
34482;BME280;20720;48.886;9.388;2022-10-31T13:50:25;98446.72;;;23.18;100.00
34482;BME280;20720;48.886;9.388;2022-10-31T13:52:50;98453.06;;;23.43;100.00
34482;BME280;20720;48.886;9.388;2022-10-31T13:58:25;98451.56;;;27.76;75.17
34482;BME280;20720;48.886;9.388;2022-10-31T14:00:59;98448.97;;;29.33;68.19
34482;BME280;20720;48.886;9.388;2022-10-31T14:03:29;98449.72;;;29.17;66.56
34482;BME280;20720;48.886;9.388;2022-10-31T14:05:55;98463.13;;;24.52;88.87
34482;BME280;20720;48.886;9.388;2022-10-31T14:08:23;98466.03;;;23.69;98.25
34482;BME280;20720;48.886;9.388;2022-10-31T14:10:53;98471.13;;;23.66;100.00
34482;BME280;20720;48.886;9.388;2022-10-31T14:13:32;98459.63;;;24.98;92.88
34482;BME280;20720;48.886;9.388;2022-10-31T14:16:02;98448.28;;;26.40;83.01
34482;BME280;20720;48.886;9.388;2022-10-31T14:18:38;98433.63;;;25.12;93.69
34482;BME280;20720;48.886;9.388;2022-10-31T14:23:48;98420.91;;;24.00;100.00
34482;BME280;20720;48.886;9.388;2022-10-31T14:28:45;98418.16;;;25.04;98.66
34482;BME280;20720;48.886;9.388;2022-10-31T14:34:01;98436.50;;;24.03;100.00
34482;BME280;20720;48.886;9.388;2022-10-31T14:36:38;98428.59;;;25.06;95.11
34482;BME280;20720;48.886;9.388;2022-10-31T14:39:19;98422.25;;;26.03;89.58
34482;BME280;20720;48.886;9.388;2022-10-31T14:50:51;98415.31;;;23.68;100.00
34482;BME280;20720;48.886;9.388;2022-10-31T14:53:26;98414.06;;;23.55;100.00
34482;BME280;20720;48.886;9.388;2022-10-31T14:55:55;98413.75;;;23.62;100.00
34482;BME280;20720;48.886;9.388;2022-10-31T14:58:37;98417.19;;;23.28;100.00